Time;durP1;ratioP1;P1;durP2;ratioP2;P2;SDS_P1;SDS_P2;PMS_P1;PMS_P2;Temp;Humidity;BMP_temperature;BMP_pressure;BME280_temperature;BME280_humidity;BME280_pressure;Samples;Min_cycle;Max_cycle;Signal;HPM_P1;HPM_P2
2023/07/13 00:01:39;;;;;;;;;7.25;7.00;;;;;22.93;100.00;99171.50;5051958;28;45440;-73
2023/07/13 00:04:04;;;;;;;;;4.75;4.75;;;;;22.87;100.00;99171.19;5050540;28;46031;-74
2023/07/13 00:06:32;;;;;;;;;5.75;4.75;;;;;22.86;100.00;99172.19;5052909;28;45568;-73
2023/07/13 00:08:59;;;;;;;;;3.40;3.40;;;;;22.87;100.00;99158.59;5053972;28;45546;-72
2023/07/13 00:11:24;;;;;;;;;8.80;7.20;;;;;22.87;100.00;99155.91;5055041;28;45444;-73
2023/07/13 00:13:49;;;;;;;;;7.00;5.25;;;;;22.87;100.00;99165.81;5043884;28;45457;-72
2023/07/13 00:16:15;;;;;;;;;5.25;5.00;;;;;22.90;100.00;99162.84;5048120;28;45546;-73
2023/07/13 00:18:40;;;;;;;;;2.75;2.75;;;;;22.92;100.00;99158.19;5049184;28;45370;-72
2023/07/13 00:21:06;;;;;;;;;4.00;4.00;;;;;22.96;100.00;99178.41;5054674;28;45527;-73
2023/07/13 00:23:36;;;;;;;;;6.00;4.75;;;;;23.01;100.00;99173.47;5056955;28;45406;-72
2023/07/13 00:26:04;;;;;;;;;4.80;3.00;;;;;23.06;100.00;99183.84;5053080;28;45534;-73
2023/07/13 00:28:29;;;;;;;;;6.80;6.00;;;;;23.08;100.00;99174.66;5051712;28;46419;-73
2023/07/13 00:30:54;;;;;;;;;5.50;3.75;;;;;23.08;100.00;99182.72;5031330;28;45450;-73
2023/07/13 00:33:21;;;;;;;;;4.75;4.00;;;;;23.08;91.32;99163.88;5056438;28;45555;-73
2023/07/13 00:35:46;;;;;;;;;8.00;5.80;;;;;23.12;100.00;99167.16;5055417;28;45453;-72
2023/07/13 00:38:12;;;;;;;;;4.75;4.75;;;;;23.08;100.00;99177.34;5054059;28;46219;-72
2023/07/13 00:40:37;;;;;;;;;9.25;9.25;;;;;23.08;100.00;99166.56;5054616;28;45430;-73
2023/07/13 00:43:04;;;;;;;;;6.50;6.00;;;;;;;;5052964;28;45552;-72
2023/07/13 00:45:30;;;;;;;;;5.80;4.60;;;;;23.08;100.00;99187.25;5049110;28;45588;-72
2023/07/13 00:47:57;;;;;;;;;10.50;9.50;;;;;23.09;100.00;99192.47;5044278;28;46955;-73
2023/07/13 00:50:23;;;;;;;;;9.60;8.00;;;;;23.14;100.00;99190.19;5053157;28;45429;-58
2023/07/13 00:52:57;;;;;;;;;6.20;6.20;;;;;23.25;100.00;99195.47;5049570;28;45497;-58
2023/07/13 00:55:23;;;;;;;;;6.20;6.20;;;;;23.32;100.00;99199.28;5053908;28;45503;-58
2023/07/13 00:57:49;;;;;;;;;13.50;10.75;;;;;23.40;100.00;99200.44;5048731;28;45505;-58
2023/07/13 01:00:14;;;;;;;;;9.50;9.00;;;;;23.46;100.00;99207.97;5054551;28;45498;-58
2023/07/13 01:02:43;;;;;;;;;14.75;12.00;;;;;23.52;100.00;99205.56;5049392;28;45487;-58
2023/07/13 01:05:22;;;;;;;;;9.75;9.00;;;;;23.53;100.00;99207.28;5054989;28;45458;-58
2023/07/13 01:07:51;;;;;;;;;9.60;9.60;;;;;23.55;100.00;99215.22;5052278;28;46378;-58
2023/07/13 01:10:20;;;;;;;;;8.60;8.60;;;;;23.55;100.00;99199.91;5054265;28;45457;-58
2023/07/13 01:12:46;;;;;;;;;2.60;2.60;;;;;23.51;100.00;99193.09;5051953;28;45476;-58
2023/07/13 01:15:38;;;;;;;;;4.25;4.25;;;;;23.43;100.00;99200.16;5055449;28;45546;-58
2023/07/13 01:18:06;;;;;;;;;3.20;3.00;;;;;23.36;100.00;99201.72;5053002;28;45597;-58
2023/07/13 01:20:36;;;;;;;;;3.60;3.60;;;;;23.31;100.00;99194.91;5053085;28;45585;-58
2023/07/13 01:23:07;;;;;;;;;3.80;3.00;;;;;23.25;100.00;99198.16;5036112;28;45390;-58
2023/07/13 01:25:34;;;;;;;;;2.00;1.00;;;;;23.18;100.00;99197.00;5054800;28;45504;-58
2023/07/13 01:28:00;;;;;;;;;3.00;3.00;;;;;23.15;100.00;99188.38;5054470;28;45503;-58
2023/07/13 01:30:25;;;;;;;;;4.50;4.50;;;;;23.09;100.00;99197.00;5054415;28;45452;-58
2023/07/13 01:32:50;;;;;;;;;3.00;3.00;;;;;23.05;100.00;99191.06;5053264;28;45393;-58
2023/07/13 01:35:16;;;;;;;;;3.50;3.50;;;;;23.01;97.04;99194.16;5055326;28;45616;-58
2023/07/13 01:37:44;;;;;;;;;2.00;2.00;;;;;22.98;100.00;99193.44;5052904;28;45474;-58
2023/07/13 01:40:10;;;;;;;;;2.80;2.00;;;;;22.97;97.61;99209.69;5055464;28;45506;-58
2023/07/13 01:42:36;;;;;;;;;3.20;3.20;;;;;22.92;98.10;99204.75;5052320;28;45574;-58
2023/07/13 01:45:02;;;;;;;;;3.60;3.60;;;;;22.90;98.35;99211.25;5055292;28;45358;-58
2023/07/13 01:47:30;;;;;;;;;2.75;2.00;;;;;22.86;100.00;99201.75;5048852;28;45599;-58
2023/07/13 01:49:56;;;;;;;;;3.20;3.20;;;;;22.82;97.81;99206.53;5052792;28;45461;-58
2023/07/13 01:52:21;;;;;;;;;3.00;3.00;;;;;22.77;95.35;99203.44;5051889;28;45468;-58
2023/07/13 01:54:46;;;;;;;;;2.75;2.75;;;;;22.75;91.84;99202.69;5054770;28;45475;-58
2023/07/13 01:57:12;;;;;;;;;3.00;3.00;;;;;22.72;90.57;99208.34;5052715;28;45702;-58
2023/07/13 01:59:37;;;;;;;;;3.00;2.00;;;;;22.69;98.69;99200.53;5062604;28;45790;-58
2023/07/13 02:02:03;;;;;;;;;2.50;2.00;;;;;22.66;100.00;99203.50;5048573;28;45599;-58
2023/07/13 02:04:28;;;;;;;;;4.00;3.00;;;;;22.63;93.90;99206.44;5045318;28;45731;-58
2023/07/13 02:06:55;;;;;;;;;2.00;2.00;;;;;22.57;98.07;99212.38;5049828;28;46535;-58
2023/07/13 02:09:21;;;;;;;;;5.00;3.20;;;;;22.53;92.45;99205.56;5054248;28;45681;-58
2023/07/13 02:11:46;;;;;;;;;2.25;2.25;;;;;22.50;100.00;99204.00;5047348;28;45537;-59
2023/07/13 02:14:11;;;;;;;;;2.75;2.00;;;;;22.47;90.92;99208.78;5054431;28;45404;-58
2023/07/13 02:16:37;;;;;;;;;4.50;3.00;;;;;22.41;96.35;99203.97;5051123;28;45996;-58
2023/07/13 02:19:02;;;;;;;;;0.75;0.75;;;;;22.34;100.00;99200.09;5054802;28;45471;-58
2023/07/13 02:21:28;;;;;;;;;3.00;3.00;;;;;22.27;94.83;99207.84;5052805;28;46027;-58
2023/07/13 02:23:54;;;;;;;;;3.40;2.00;;;;;22.22;99.78;99215.44;5054519;28;45526;-59
2023/07/13 02:26:20;;;;;;;;;3.50;2.25;;;;;22.21;99.25;99221.81;5052300;28;46434;-58
2023/07/13 02:28:45;;;;;;;;;2.00;2.00;;;;;22.14;98.83;99224.16;5045465;28;45420;-58
2023/07/13 02:31:13;;;;;;;;;1.00;1.00;;;;;22.10;94.34;99224.56;5051940;28;45353;-59
2023/07/13 02:33:39;;;;;;;;;2.00;2.00;;;;;22.05;97.08;99211.53;5053998;28;45502;-58
2023/07/13 02:36:08;;;;;;;;;1.50;1.00;;;;;22.03;94.14;99209.97;5051462;28;45937;-58
2023/07/13 02:38:34;;;;;;;;;2.60;2.00;;;;;22.01;98.81;99223.50;5052038;28;45466;-58
2023/07/13 02:41:01;;;;;;;;;3.00;3.00;;;;;21.94;95.24;99227.69;5051892;28;45577;-58
2023/07/13 02:43:27;;;;;;;;;2.00;2.00;;;;;21.88;96.60;99217.47;5054272;28;45320;-58
2023/07/13 02:45:52;;;;;;;;;2.00;2.00;;;;;21.86;97.73;99225.63;5052193;28;46259;-58
2023/07/13 02:48:17;;;;;;;;;4.75;2.00;;;;;21.84;98.31;99224.91;5048824;28;45411;-58
2023/07/13 02:50:44;;;;;;;;;2.00;1.00;;;;;21.81;95.47;99230.53;5052439;28;45581;-58
2023/07/13 02:53:10;;;;;;;;;1.80;1.40;;;;;21.77;92.05;99213.00;5050733;28;45461;-58
2023/07/13 02:55:35;;;;;;;;;2.00;2.00;;;;;21.75;100.00;99219.50;5051917;28;46426;-58
2023/07/13 02:58:01;;;;;;;;;2.00;2.00;;;;;21.74;100.00;99215.09;5049492;28;45548;-58
2023/07/13 03:00:27;;;;;;;;;3.00;2.00;;;;;21.71;98.82;99215.34;5053351;28;45405;-58
2023/07/13 03:02:53;;;;;;;;;3.20;2.20;;;;;21.69;98.08;99215.47;5048163;28;45475;-58
2023/07/13 03:05:18;;;;;;;;;1.75;1.75;;;;;21.69;99.78;99211.94;5053839;28;46588;-58
2023/07/13 03:07:44;;;;;;;;;2.00;2.00;;;;;21.67;100.00;99222.81;5047781;28;45409;-58
2023/07/13 03:10:09;;;;;;;;;1.25;1.25;;;;;21.65;99.05;99223.91;5036103;28;45545;-58
2023/07/13 03:12:35;;;;;;;;;3.25;3.25;;;;;21.63;95.39;99226.72;5048609;28;45445;-58
2023/07/13 03:15:00;;;;;;;;;2.00;2.00;;;;;21.61;97.56;99234.06;5053686;28;46563;-58
2023/07/13 03:17:26;;;;;;;;;1.25;1.00;;;;;21.60;100.00;99232.38;5048161;28;45459;-58
2023/07/13 03:19:51;;;;;;;;;2.50;1.50;;;;;21.61;100.00;99217.13;5053823;28;45451;-58
2023/07/13 03:22:20;;;;;;;;;2.00;2.00;;;;;21.58;100.00;99227.13;5052237;28;45456;-58
2023/07/13 03:24:45;;;;;;;;;2.00;2.00;;;;;21.58;100.00;99226.28;5035540;28;47201;-58
2023/07/13 03:27:11;;;;;;;;;3.50;2.00;;;;;21.56;100.00;99231.75;5052418;28;45548;-58
2023/07/13 03:29:36;;;;;;;;;2.50;2.50;;;;;21.54;100.00;99238.22;5034954;28;45478;-58
2023/07/13 03:32:02;;;;;;;;;3.00;3.00;;;;;21.50;100.00;99232.25;5050023;28;45476;-58
2023/07/13 03:34:27;;;;;;;;;1.25;1.25;;;;;21.47;100.00;99253.97;5053017;28;46379;-58
2023/07/13 03:36:55;;;;;;;;;2.25;2.25;;;;;21.46;100.00;99246.03;5050786;28;45510;-58
2023/07/13 03:39:21;;;;;;;;;3.60;3.00;;;;;21.42;100.00;99258.88;5053798;28;45558;-58
2023/07/13 03:41:47;;;;;;;;;1.50;1.50;;;;;21.37;100.00;99244.13;5049584;28;45543;-58
2023/07/13 03:44:12;;;;;;;;;1.25;1.25;;;;;21.38;100.00;99253.91;5052351;28;46581;-58
2023/07/13 03:46:38;;;;;;;;;1.00;1.00;;;;;21.35;94.93;99260.34;5048868;28;45421;-58
2023/07/13 03:49:05;;;;;;;;;2.00;1.00;;;;;21.38;98.30;99252.06;5053667;28;46106;-58
2023/07/13 03:51:30;;;;;;;;;1.60;1.20;;;;;21.39;98.36;99266.34;5050897;28;45514;-58
2023/07/13 03:53:56;;;;;;;;;1.00;1.00;;;;;21.40;98.55;99255.47;5052834;28;45427;-58
2023/07/13 03:56:22;;;;;;;;;2.25;2.25;;;;;21.43;94.57;99262.44;5046935;28;45503;-58
2023/07/13 03:58:50;;;;;;;;;1.00;1.00;;;;;21.43;89.38;99257.06;5051726;28;45424;-58
2023/07/13 04:01:18;;;;;;;;;0.40;0.20;;;;;21.46;96.15;99257.63;5048055;28;45542;-58
2023/07/13 04:03:44;;;;;;;;;1.00;1.00;;;;;21.47;97.34;99258.47;5050414;28;45468;-58
2023/07/13 04:06:23;;;;;;;;;2.00;2.00;;;;;21.48;96.70;99271.78;5048737;28;45709;-58
2023/07/13 04:08:54;;;;;;;;;1.00;1.00;;;;;21.50;93.49;99261.78;5052499;28;45464;-58
2023/07/13 04:11:23;;;;;;;;;1.00;1.00;;;;;21.49;86.22;99260.06;5029573;28;45413;-59
2023/07/13 04:13:49;;;;;;;;;1.00;1.00;;;;;21.49;89.99;99276.16;5050575;28;45617;-59
2023/07/13 04:16:16;;;;;;;;;1.00;1.00;;;;;21.50;84.91;99280.56;5031207;28;45613;-58
2023/07/13 04:18:41;;;;;;;;;1.80;1.00;;;;;21.49;80.89;99296.78;5050711;28;45435;-59
2023/07/13 04:21:09;;;;;;;;;0.50;0.50;;;;;21.49;87.14;99284.22;5049867;28;45454;-58
2023/07/13 04:23:34;;;;;;;;;4.00;2.00;;;;;21.49;84.63;99281.53;5052665;28;45520;-60
2023/07/13 04:25:59;;;;;;;;;1.00;1.00;;;;;21.50;87.46;99302.00;5050594;28;45393;-60
2023/07/13 04:28:26;;;;;;;;;1.00;1.00;;;;;21.48;84.38;99320.06;5050940;28;45358;-77
2023/07/13 04:30:52;;;;;;;;;2.00;2.00;;;;;21.49;79.36;99292.25;5053783;28;45414;-71
2023/07/13 04:33:22;;;;;;;;;0.00;0.00;;;;;21.43;73.75;99305.34;5056103;28;46670;-68
2023/07/13 04:35:47;;;;;;;;;0.60;0.00;;;;;21.40;81.57;99316.31;5054803;28;45387;-66
2023/07/13 04:38:14;;;;;;;;;1.00;1.00;;;;;21.34;81.20;99300.72;5051287;28;45438;-63
2023/07/13 04:40:40;;;;;;;;;1.80;1.80;;;;;21.24;78.31;99354.25;5054103;28;45342;-68
2023/07/13 04:43:05;;;;;;;;;1.75;1.75;;;;;21.14;83.10;99321.91;5050997;28;45416;-64
2023/07/13 04:45:31;;;;;;;;;2.25;0.75;;;;;21.06;79.48;99331.56;5054442;28;45381;-63
2023/07/13 04:47:56;;;;;;;;;1.50;1.50;;;;;20.95;80.27;99339.63;5048361;28;45516;-63
2023/07/13 04:50:23;;;;;;;;;1.00;1.00;;;;;20.85;74.10;99342.16;5037414;28;45433;-78
2023/07/13 04:52:51;;;;;;;;;1.00;1.00;;;;;20.76;75.29;99343.75;5055259;28;45538;-76
2023/07/13 04:55:17;;;;;;;;;0.80;0.80;;;;;20.72;83.96;99342.25;5048479;28;45439;-76
2023/07/13 04:57:43;;;;;;;;;1.00;1.00;;;;;20.65;77.14;99370.50;5048983;28;45402;-74
2023/07/13 05:00:09;;;;;;;;;1.50;1.50;;;;;20.64;83.40;99343.81;5053062;28;45683;-74
2023/07/13 05:02:35;;;;;;;;;1.00;1.00;;;;;20.58;84.36;99355.03;5048052;28;46466;-75
2023/07/13 05:05:01;;;;;;;;;1.00;1.00;;;;;20.53;80.82;99369.63;5039663;28;45464;-76
2023/07/13 05:07:26;;;;;;;;;0.80;0.80;;;;;20.48;79.16;99352.19;5052810;28;45615;-76
2023/07/13 05:09:52;;;;;;;;;0.00;0.00;;;;;20.46;82.55;99354.97;5053472;28;45531;-74
2023/07/13 05:12:18;;;;;;;;;1.50;1.50;;;;;20.43;76.26;99398.09;5050919;28;46373;-76
2023/07/13 05:14:44;;;;;;;;;0.25;0.25;;;;;20.42;84.50;99371.44;5052760;28;45429;-75
2023/07/13 05:17:09;;;;;;;;;1.00;1.00;;;;;20.37;78.65;99371.78;5050058;28;45490;-77
2023/07/13 05:19:35;;;;;;;;;1.25;1.25;;;;;20.33;84.83;99386.31;5048985;28;45578;-77
2023/07/13 05:22:00;;;;;;;;;2.25;1.00;;;;;20.28;83.87;99399.19;5048110;28;46700;-74
2023/07/13 05:24:26;;;;;;;;;1.00;1.00;;;;;20.25;80.83;99366.47;5053630;28;45488;-77
2023/07/13 05:26:52;;;;;;;;;1.50;1.50;;;;;20.24;81.26;99396.91;5052806;28;45457;-76
2023/07/13 05:29:17;;;;;;;;;1.80;1.20;;;;;20.19;79.12;99397.22;5052062;28;45531;-74
2023/07/13 05:31:42;;;;;;;;;2.00;2.00;;;;;20.15;76.38;99385.88;5033757;28;45601;-74
2023/07/13 05:34:08;;;;;;;;;1.00;1.00;;;;;20.10;85.66;99374.69;5052135;28;45707;-74
2023/07/13 05:36:34;;;;;;;;;0.00;0.00;;;;;20.08;82.78;99376.63;5046111;28;45475;-74
2023/07/13 05:38:59;;;;;;;;;0.00;0.00;;;;;20.06;83.54;99399.13;5044991;28;45456;-78
2023/07/13 05:41:24;;;;;;;;;1.00;0.00;;;;;20.05;81.69;99387.56;5030215;28;45716;-75
2023/07/13 05:43:50;;;;;;;;;1.00;1.00;;;;;20.03;83.17;99385.97;5052509;28;45433;-75
2023/07/13 05:46:15;;;;;;;;;0.00;0.00;;;;;20.01;81.30;99399.47;5048769;28;45513;-74
2023/07/13 05:48:40;;;;;;;;;2.00;2.00;;;;;20.04;86.64;99385.84;5052775;28;45442;-74
2023/07/13 05:51:06;;;;;;;;;1.50;1.50;;;;;20.04;83.33;99401.91;5048436;28;46065;-74
2023/07/13 05:53:31;;;;;;;;;2.50;1.00;;;;;20.00;83.20;99403.09;5052648;28;45498;-77
2023/07/13 05:55:58;;;;;;;;;2.20;0.80;;;;;19.95;81.84;99407.94;5050558;28;45480;-78
2023/07/13 05:58:24;;;;;;;;;1.25;1.25;;;;;19.90;84.31;99402.09;5042630;28;45537;-75
2023/07/13 06:01:09;;;;;;;;;2.75;2.00;;;;;19.83;84.91;99417.72;5048481;28;46094;-75
2023/07/13 06:03:35;;;;;;;;;1.00;1.00;;;;;19.83;86.46;99414.19;5050622;28;45558;-75
2023/07/13 06:06:01;;;;;;;;;0.50;0.50;;;;;19.81;87.95;99400.06;5051274;28;45541;-74
2023/07/13 06:08:27;;;;;;;;;1.00;1.00;;;;;19.83;91.26;99403.50;5051624;28;45447;-74
2023/07/13 06:10:53;;;;;;;;;1.80;1.80;;;;;19.86;82.25;99420.19;5050864;28;45549;-74
2023/07/13 06:13:19;;;;;;;;;2.00;2.00;;;;;19.85;87.27;99410.44;5043601;28;45471;-74
2023/07/13 06:15:51;;;;;;;;;3.50;1.00;;;;;19.80;86.05;99428.66;5035198;28;45418;-76
2023/07/13 06:18:16;;;;;;;;;1.00;1.00;;;;;19.79;89.05;99424.25;5031778;28;45524;-69
2023/07/13 06:20:41;;;;;;;;;1.00;1.00;;;;;19.78;86.56;99438.59;5049133;28;45905;-69
2023/07/13 06:23:07;;;;;;;;;3.00;2.00;;;;;19.76;81.88;99435.22;5047922;28;45398;-70
2023/07/13 06:25:32;;;;;;;;;1.00;1.00;;;;;19.77;88.32;99428.88;5062754;28;45637;-70
2023/07/13 06:27:58;;;;;;;;;0.00;0.00;;;;;19.77;87.04;99422.69;5048054;28;45611;-69
2023/07/13 06:30:23;;;;;;;;;1.25;1.25;;;;;19.80;91.02;99434.00;5048470;28;45637;-69
2023/07/13 06:32:49;;;;;;;;;1.00;1.00;;;;;19.84;88.04;99422.13;5047264;28;45463;-69
2023/07/13 06:35:14;;;;;;;;;0.00;0.00;;;;;19.88;90.00;99430.78;5029381;28;45696;-69
2023/07/13 06:37:40;;;;;;;;;0.25;0.00;;;;;19.90;88.90;99436.03;5041880;28;45350;-69
2023/07/13 06:40:06;;;;;;;;;2.25;1.00;;;;;19.92;89.88;99448.31;5049367;28;45729;-70
2023/07/13 06:42:31;;;;;;;;;1.20;0.20;;;;;19.93;86.18;99441.16;5041945;28;45726;-68
2023/07/13 06:44:57;;;;;;;;;1.75;1.00;;;;;19.94;87.00;99437.50;5045917;28;45875;-68
2023/07/13 06:47:22;;;;;;;;;1.50;1.50;;;;;19.98;86.73;99439.81;5044123;28;45440;-61
2023/07/13 06:49:47;;;;;;;;;3.00;1.50;;;;;20.08;90.11;99435.53;5049149;28;45975;-61
2023/07/13 06:52:13;;;;;;;;;1.00;1.00;;;;;20.20;91.48;99434.59;5040786;28;45550;-61
2023/07/13 06:54:39;;;;;;;;;2.75;1.25;;;;;20.32;85.23;99432.81;5048049;28;45549;-61
2023/07/13 06:57:04;;;;;;;;;1.00;1.00;;;;;20.41;89.43;99436.69;5046117;28;45540;-62
2023/07/13 06:59:30;;;;;;;;;1.00;1.00;;;;;20.46;84.14;99446.06;5049348;28;45611;-61
2023/07/13 07:01:55;;;;;;;;;1.00;1.00;;;;;20.54;81.92;99432.09;5046893;28;45572;-62
2023/07/13 07:04:21;;;;;;;;;1.00;1.00;;;;;20.65;84.67;99436.63;5049494;28;45609;-62
2023/07/13 07:06:46;;;;;;;;;0.75;0.75;;;;;20.74;84.21;99431.44;5045088;28;45595;-61
2023/07/13 07:09:12;;;;;;;;;2.00;1.00;;;;;20.84;81.15;99437.78;5026784;28;46160;-61
2023/07/13 07:11:37;;;;;;;;;1.00;1.00;;;;;20.94;79.21;99437.09;5047905;28;45538;-62
2023/07/13 07:14:03;;;;;;;;;1.00;1.00;;;;;21.04;86.79;99427.34;5033129;28;45713;-62
2023/07/13 07:16:28;;;;;;;;;2.75;1.25;;;;;21.10;85.28;99427.72;5048662;28;45467;-62
2023/07/13 07:18:53;;;;;;;;;1.25;1.25;;;;;21.18;81.91;99430.63;5034181;28;46603;-64
2023/07/13 07:21:19;;;;;;;;;1.00;1.00;;;;;21.24;80.29;99432.03;5050194;28;45450;-60
2023/07/13 07:23:46;;;;;;;;;2.00;2.00;;;;;21.30;84.91;99427.97;5048296;28;45318;-61
2023/07/13 07:26:11;;;;;;;;;1.60;1.00;;;;;21.36;87.03;99431.03;5033672;28;45552;-58
2023/07/13 07:28:37;;;;;;;;;1.00;1.00;;;;;21.43;81.44;99432.28;5045034;28;46602;-60
2023/07/13 07:31:02;;;;;;;;;2.00;1.75;;;;;21.52;81.69;99438.72;5050151;28;45408;-59
2023/07/13 07:33:27;;;;;;;;;1.00;1.00;;;;;21.59;89.54;99432.75;5044582;28;45590;-59
2023/07/13 07:35:53;;;;;;;;;1.00;1.00;;;;;21.68;78.76;99436.50;5050351;28;45425;-59
2023/07/13 07:38:19;;;;;;;;;3.00;2.00;;;;;21.75;82.88;99453.84;5045550;28;45798;-59
2023/07/13 07:40:44;;;;;;;;;1.00;1.00;;;;;21.81;81.81;99447.94;5032819;28;45676;-59
2023/07/13 07:43:11;;;;;;;;;1.00;1.00;;;;;21.85;87.51;99438.69;5047121;28;45469;-59
2023/07/13 07:45:39;;;;;;;;;1.60;1.60;;;;;21.89;84.66;99460.75;5050627;28;45577;-59
2023/07/13 07:48:05;;;;;;;;;1.00;1.00;;;;;21.91;84.43;99458.81;5051073;28;46230;-58
2023/07/13 07:50:31;;;;;;;;;1.60;1.60;;;;;21.89;83.48;99458.09;5051020;28;45458;-59
2023/07/13 07:52:57;;;;;;;;;2.50;2.00;;;;;21.89;83.72;99460.75;5048044;28;45370;-59
2023/07/13 07:55:23;;;;;;;;;1.00;1.00;;;;;21.92;85.69;99460.53;5051560;28;45582;-58
2023/07/13 07:57:49;;;;;;;;;1.40;1.00;;;;;21.88;82.96;99457.22;5045426;28;46282;-59
2023/07/13 08:00:16;;;;;;;;;2.20;1.00;;;;;21.81;79.44;99456.00;5052102;28;45396;-58
2023/07/13 08:02:41;;;;;;;;;1.00;0.80;;;;;21.78;83.63;99444.69;5034317;28;45460;-57
2023/07/13 08:05:08;;;;;;;;;2.00;2.00;;;;;21.78;80.68;99450.06;5055401;28;45477;-58
2023/07/13 08:07:35;;;;;;;;;1.60;1.60;;;;;21.78;82.09;99442.00;5030888;28;48092;-58
2023/07/13 08:10:00;;;;;;;;;2.40;0.20;;;;;21.75;82.57;99461.03;5051616;28;45332;-58
2023/07/13 08:12:26;;;;;;;;;2.50;2.00;;;;;21.74;83.71;99449.44;5050689;28;45503;-58
2023/07/13 08:14:53;;;;;;;;;2.75;2.00;;;;;21.75;87.43;99442.25;5055230;28;45305;-58
2023/07/13 08:17:19;;;;;;;;;2.00;1.00;;;;;21.75;79.08;99445.78;5051530;28;45586;-58
2023/07/13 08:19:45;;;;;;;;;1.00;1.00;;;;;21.80;81.20;99454.28;5055200;28;45431;-58
2023/07/13 08:22:10;;;;;;;;;1.25;1.25;;;;;21.87;83.17;99441.25;5052891;28;45534;-57
2023/07/13 08:24:36;;;;;;;;;2.00;1.00;;;;;21.93;81.00;99455.03;5055106;28;45426;-58
2023/07/13 08:27:01;;;;;;;;;3.75;2.00;;;;;21.95;76.09;99439.63;5053248;28;46134;-57
2023/07/13 08:29:26;;;;;;;;;1.00;1.00;;;;;21.99;77.69;99442.91;5055371;28;45408;-58
2023/07/13 08:31:52;;;;;;;;;2.00;1.50;;;;;22.01;78.96;99437.47;5053212;28;45406;-58
2023/07/13 08:34:17;;;;;;;;;1.00;1.00;;;;;22.02;77.22;99431.97;5051587;28;45584;-58
2023/07/13 08:36:42;;;;;;;;;2.00;1.00;;;;;22.03;79.47;99435.50;5052018;28;46388;-58
2023/07/13 08:39:08;;;;;;;;;1.00;1.00;;;;;22.03;74.72;99433.66;5037063;28;45440;-58
2023/07/13 08:41:35;;;;;;;;;1.50;1.25;;;;;22.03;78.89;99433.66;5052100;28;45315;-59
2023/07/13 08:44:03;;;;;;;;;2.40;2.40;;;;;22.00;77.84;99433.91;5054694;28;45531;-59
2023/07/13 08:46:36;;;;;;;;;2.00;2.00;;;;;21.98;77.20;99448.41;5051124;28;46249;-59
2023/07/13 08:49:05;;;;;;;;;2.00;2.00;;;;;21.92;77.24;99453.31;5051823;28;45426;-59
2023/07/13 08:51:36;;;;;;;;;2.60;2.00;;;;;21.87;82.80;99439.41;5048604;28;45507;-59
2023/07/13 08:54:09;;;;;;;;;2.20;1.80;;;;;21.92;82.95;99439.03;5053199;28;45563;-59
2023/07/13 08:56:35;;;;;;;;;2.00;2.00;;;;;21.97;80.47;99439.50;5051671;28;46876;-58
2023/07/13 08:59:09;;;;;;;;;1.25;1.00;;;;;22.03;80.58;99444.41;5035939;28;45370;-58
2023/07/13 09:02:16;;;;;;;;;2.40;2.40;;;;;22.07;77.73;99450.38;5051972;28;45404;-58
2023/07/13 09:04:48;;;;;;;;;2.00;1.60;;;;;22.08;79.79;99441.34;5045411;28;45562;-58
2023/07/13 09:07:32;;;;;;;;;2.60;2.00;;;;;22.13;80.23;99431.06;5050329;28;46653;-58
2023/07/13 09:10:13;;;;;;;;;1.00;1.00;;;;;22.19;81.42;99430.56;5051893;28;45332;-57
2023/07/13 09:13:20;;;;;;;;;2.60;2.60;;;;;22.27;81.00;99428.97;5050902;28;45453;-59
2023/07/13 09:15:48;;;;;;;;;3.00;3.00;;;;;22.34;74.90;99431.97;5043196;28;45690;-59
2023/07/13 09:18:24;;;;;;;;;2.00;2.00;;;;;22.33;80.24;99430.25;5053376;28;46516;-58
2023/07/13 09:20:56;;;;;;;;;2.20;2.20;;;;;22.32;82.39;99433.09;5051976;28;45335;-58
2023/07/13 09:23:24;;;;;;;;;5.20;2.00;;;;;22.39;77.52;99440.50;5052748;28;45393;-59
2023/07/13 09:25:56;;;;;;;;;4.00;2.00;;;;;22.47;73.32;99443.41;5052015;28;45540;-58
2023/07/13 09:28:43;;;;;;;;;3.20;3.20;;;;;22.56;74.60;99455.22;5049006;28;45356;-59
2023/07/13 09:31:25;;;;;;;;;2.40;2.20;;;;;22.66;71.72;99447.22;5051326;28;45469;-58
2023/07/13 09:33:51;;;;;;;;;1.00;0.80;;;;;22.68;71.59;99450.63;5054053;28;45506;-60
2023/07/13 09:36:19;;;;;;;;;1.25;1.25;;;;;22.73;72.69;99443.03;5050288;28;45637;-58
2023/07/13 09:38:46;;;;;;;;;2.80;2.80;;;;;22.83;75.99;99441.28;5053504;28;45476;-59
2023/07/13 09:41:21;;;;;;;;;4.00;4.00;;;;;22.94;70.38;99465.44;5030701;28;45426;-59
2023/07/13 09:44:11;;;;;;;;;3.60;3.00;;;;;23.02;70.77;99456.72;5053661;28;45378;-59
2023/07/13 09:46:45;;;;;;;;;1.00;1.00;;;;;23.12;73.88;99449.56;5049868;28;45621;-59
2023/07/13 09:49:11;;;;;;;;;3.00;3.00;;;;;23.22;71.60;99467.47;5053604;28;45467;-59
2023/07/13 09:51:38;;;;;;;;;1.00;1.00;;;;;23.29;65.00;99459.72;5047035;28;45544;-59
2023/07/13 09:54:04;;;;;;;;;3.00;3.00;;;;;23.29;70.07;99471.31;5053603;28;45535;-59
2023/07/13 09:56:31;;;;;;;;;2.75;2.75;;;;;23.32;71.12;99454.91;5051254;28;45405;-59
2023/07/13 09:58:58;;;;;;;;;2.00;2.00;;;;;23.37;67.86;99464.41;5052655;28;45448;-59
2023/07/13 10:01:37;;;;;;;;;4.80;2.40;;;;;23.38;68.21;99458.91;5049585;28;45531;-59
2023/07/13 10:04:12;;;;;;;;;2.80;2.80;;;;;23.35;72.50;99448.41;5048603;28;45472;-59
2023/07/13 10:06:42;;;;;;;;;2.80;2.00;;;;;23.35;65.08;99472.63;5033968;28;45648;-59
2023/07/13 10:09:09;;;;;;;;;3.20;3.00;;;;;23.36;69.38;99452.78;5053545;28;45439;-58
2023/07/13 10:11:36;;;;;;;;;1.00;1.00;;;;;23.44;68.37;99449.44;5051350;28;45502;-58
2023/07/13 10:14:11;;;;;;;;;3.40;3.00;;;;;23.50;61.66;99481.19;5053824;28;45483;-58
2023/07/13 10:16:37;;;;;;;;;2.80;2.40;;;;;23.48;64.49;99461.63;5048286;28;45449;-58
2023/07/13 10:19:15;;;;;;;;;3.25;2.25;;;;;23.49;66.05;99461.50;5053286;28;45979;-58
2023/07/13 10:21:52;;;;;;;;;3.20;2.20;;;;;23.48;61.86;99491.22;5051684;28;45849;-58
2023/07/13 10:24:31;;;;;;;;;2.00;2.00;;;;;23.54;65.32;99445.81;5053505;28;45488;-58
2023/07/13 10:27:09;;;;;;;;;4.00;3.00;;;;;23.61;60.99;99473.06;5051911;28;45563;-58
2023/07/13 10:29:40;;;;;;;;;3.00;2.00;;;;;23.64;63.04;99470.09;5053115;28;45489;-58
2023/07/13 10:32:13;;;;;;;;;2.80;2.80;;;;;23.69;64.07;99478.63;5051222;28;45393;-58
2023/07/13 10:34:44;;;;;;;;;3.00;3.00;;;;;23.70;59.91;99457.94;5052922;28;45540;-58
2023/07/13 10:37:22;;;;;;;;;2.40;2.40;;;;;23.71;63.11;99478.47;5047355;28;45509;-58
2023/07/13 10:39:50;;;;;;;;;2.00;2.00;;;;;23.69;59.89;99481.31;5046540;28;46374;-58
2023/07/13 10:42:33;;;;;;;;;2.20;2.00;;;;;23.74;60.19;99462.91;5041998;28;45458;-58
2023/07/13 10:44:58;;;;;;;;;3.80;3.00;;;;;23.77;60.44;99449.19;5052871;28;45433;-58
2023/07/13 10:47:25;;;;;;;;;2.75;2.00;;;;;23.78;58.87;99452.72;5028035;28;45599;-58
2023/07/13 10:49:57;;;;;;;;;3.00;2.00;;;;;23.80;60.68;99454.25;5049673;28;46569;-58
2023/07/13 10:52:46;;;;;;;;;1.80;1.80;;;;;23.89;59.04;99453.47;5045740;28;45458;-57
2023/07/13 10:55:35;;;;;;;;;2.40;2.40;;;;;23.94;58.19;99445.81;5041420;28;45452;-58
2023/07/13 10:58:12;;;;;;;;;2.60;2.00;;;;;23.98;60.14;99449.94;5050873;28;45357;-57
2023/07/13 11:01:09;;;;;;;;;1.80;1.80;;;;;24.01;58.44;99446.97;5050923;28;45508;-58
2023/07/13 11:03:50;;;;;;;;;1.40;1.40;;;;;24.04;55.47;99412.66;5052107;28;45460;-58
2023/07/13 11:06:37;;;;;;;;;1.80;1.80;;;;;24.09;57.74;99427.41;5048593;28;45501;-58
2023/07/13 11:09:36;;;;;;;;;2.80;2.80;;;;;24.10;56.36;99425.59;5049827;28;45451;-59
2023/07/13 11:12:26;;;;;;;;;2.00;2.00;;;;;24.15;56.39;99413.38;5048058;28;45570;-58
2023/07/13 11:15:02;;;;;;;;;3.00;2.80;;;;;24.19;60.35;99420.19;5015054;28;45439;-59
2023/07/13 11:17:27;;;;;;;;;5.40;3.60;;;;;24.26;58.40;99432.16;5049471;28;45382;-58
2023/07/13 11:19:53;;;;;;;;;1.75;1.75;;;;;24.29;57.25;99448.06;5052263;28;45543;-58
2023/07/13 11:22:50;;;;;;;;;3.00;3.00;;;;;24.32;57.78;99428.03;5045358;28;47268;-58
2023/07/13 11:25:29;;;;;;;;;1.80;1.00;;;;;24.35;55.21;99412.44;5042715;28;45369;-58
2023/07/13 11:28:12;;;;;;;;;1.00;1.00;;;;;24.44;55.02;99437.69;5051436;28;45323;-58
2023/07/13 11:30:47;;;;;;;;;2.20;2.00;;;;;24.45;53.70;99428.63;5050853;28;45412;-58
2023/07/13 11:33:24;;;;;;;;;2.00;2.00;;;;;24.51;56.64;99414.56;5050090;28;45675;-58
2023/07/13 11:35:52;;;;;;;;;2.60;2.60;;;;;24.59;58.02;99419.25;5032628;28;45372;-58
2023/07/13 11:38:21;;;;;;;;;2.40;1.60;;;;;24.63;56.57;99405.31;5027558;28;45486;-58